createdAt,value
2022-12-13T00:00:31.646Z,7.47
2022-12-13T00:02:58.566Z,7.75
2022-12-13T00:05:25.517Z,7.53
2022-12-13T00:07:52.554Z,8.30
2022-12-13T00:10:19.543Z,7.05
2022-12-13T00:12:46.663Z,9.45
2022-12-13T00:15:13.933Z,7.13
2022-12-13T00:17:41.738Z,9.05
2022-12-13T00:20:09.041Z,6.45
2022-12-13T00:22:35.921Z,7.25
2022-12-13T00:25:03.052Z,7.00
2022-12-13T00:27:29.939Z,5.57
2022-12-13T00:29:56.978Z,6.90
2022-12-13T00:32:24.002Z,9.48
2022-12-13T00:34:50.967Z,7.22
2022-12-13T00:37:17.867Z,6.38
2022-12-13T00:39:44.850Z,7.40
2022-12-13T00:42:11.751Z,7.22
2022-12-13T00:44:38.714Z,5.95
2022-12-13T00:47:05.728Z,7.43
2022-12-13T00:49:32.704Z,8.02
2022-12-13T00:52:00.310Z,7.35
2022-12-13T00:54:28.441Z,8.65
2022-12-13T00:56:55.448Z,7.32
2022-12-13T00:59:23.163Z,6.88
2022-12-13T01:01:50.137Z,4.93
2022-12-13T01:04:17.295Z,6.13
2022-12-13T01:06:45.496Z,6.90
2022-12-13T01:09:20.371Z,5.35
2022-12-13T01:11:47.453Z,5.70
2022-12-13T01:14:14.585Z,4.70
2022-12-13T01:16:41.662Z,5.53
2022-12-13T01:19:08.596Z,5.43
2022-12-13T01:21:35.700Z,4.43
2022-12-13T01:24:03.729Z,5.18
2022-12-13T01:26:30.740Z,5.90
2022-12-13T01:28:57.726Z,4.95
2022-12-13T01:31:24.862Z,4.50
2022-12-13T01:33:51.773Z,5.25
2022-12-13T01:36:27.771Z,4.80
2022-12-13T01:38:58.616Z,4.95
2022-12-13T01:41:27.268Z,6.10
2022-12-13T01:44:16.057Z,5.72
2022-12-13T01:46:43.022Z,6.20
2022-12-13T01:49:19.406Z,4.88
2022-12-13T01:51:50.369Z,6.60
2022-12-13T01:54:21.280Z,5.30
2022-12-13T01:57:00.815Z,5.10
2022-12-13T01:59:28.082Z,5.13
2022-12-13T02:01:54.995Z,4.88
2022-12-13T02:04:44.293Z,5.70
2022-12-13T02:07:23.276Z,6.30
2022-12-13T02:09:56.393Z,5.10
2022-12-13T02:12:25.519Z,5.47
2022-12-13T02:14:57.958Z,5.22
2022-12-13T02:17:29.822Z,5.25
2022-12-13T02:20:21.544Z,5.28
2022-12-13T02:23:08.240Z,5.38
2022-12-13T02:26:06.017Z,5.72
2022-12-13T02:28:42.042Z,4.88
2022-12-13T02:31:14.609Z,5.05
2022-12-13T02:33:58.709Z,5.15
2022-12-13T02:39:30.703Z,4.22
2022-12-13T02:42:06.116Z,5.00
2022-12-13T02:44:40.101Z,4.75
2022-12-13T02:47:12.754Z,4.50
2022-12-13T02:49:51.968Z,4.80
2022-12-13T02:52:22.487Z,5.55
2022-12-13T02:54:49.843Z,4.68
2022-12-13T02:57:31.358Z,4.50
2022-12-13T02:59:59.811Z,4.40
2022-12-13T03:02:38.969Z,4.60
2022-12-13T03:05:28.601Z,5.13
2022-12-13T03:08:03.092Z,4.35
2022-12-13T03:10:34.021Z,4.32
2022-12-13T03:13:21.383Z,4.72
2022-12-13T03:15:55.934Z,5.25
2022-12-13T03:18:23.064Z,4.35
2022-12-13T03:20:57.287Z,4.63
2022-12-13T03:23:24.389Z,4.90
2022-12-13T03:25:53.035Z,5.28
2022-12-13T03:28:20.062Z,4.97
2022-12-13T03:30:47.016Z,6.88
2022-12-13T03:33:14.051Z,6.05
2022-12-13T03:35:45.126Z,4.25
2022-12-13T03:38:22.438Z,4.90
2022-12-13T03:40:52.262Z,4.60
2022-12-13T03:43:22.110Z,4.22
2022-12-13T03:45:51.204Z,3.97
2022-12-13T03:48:23.057Z,5.03
2022-12-13T03:50:51.456Z,5.38
2022-12-13T03:53:23.188Z,4.88
2022-12-13T03:56:00.982Z,3.95
2022-12-13T03:58:36.111Z,5.07
2022-12-13T04:01:08.759Z,3.95
2022-12-13T04:03:36.265Z,4.78
2022-12-13T04:06:03.810Z,5.03
2022-12-13T04:08:30.883Z,4.32
2022-12-13T04:10:57.808Z,5.53
2022-12-13T04:13:33.459Z,3.90
2022-12-13T04:16:01.581Z,4.43
2022-12-13T04:18:28.558Z,4.63
2022-12-13T04:20:55.513Z,4.70
2022-12-13T04:23:22.396Z,5.30
2022-12-13T04:25:49.308Z,5.35
2022-12-13T04:28:22.180Z,3.88
2022-12-13T04:33:24.523Z,3.70
2022-12-13T04:35:51.675Z,4.43
2022-12-13T04:38:18.740Z,4.65
2022-12-13T04:40:45.958Z,4.47
2022-12-13T04:43:12.819Z,4.05
2022-12-13T04:45:39.863Z,3.58
2022-12-13T04:48:06.842Z,3.67
2022-12-13T04:50:34.117Z,3.95
2022-12-13T04:53:01.070Z,3.33
2022-12-13T04:55:28.016Z,3.38
2022-12-13T04:57:54.914Z,3.88
2022-12-13T05:00:23.391Z,3.45
2022-12-13T05:02:50.758Z,3.17
2022-12-13T05:05:18.252Z,4.40
2022-12-13T05:07:45.505Z,3.70
2022-12-13T05:10:13.952Z,3.85
2022-12-13T05:13:00.043Z,4.28
2022-12-13T05:15:27.853Z,3.78
2022-12-13T05:17:54.796Z,3.97
2022-12-13T05:20:21.653Z,3.58
2022-12-13T05:22:48.632Z,4.60
2022-12-13T05:25:15.677Z,3.40
2022-12-13T05:27:42.748Z,5.10
2022-12-13T05:30:10.331Z,4.57
2022-12-13T05:32:44.119Z,3.70
2022-12-13T05:35:12.850Z,3.97
2022-12-13T05:37:39.859Z,3.38
2022-12-13T05:40:07.638Z,4.20
2022-12-13T05:42:34.585Z,7.93
2022-12-13T05:45:01.490Z,10.68
2022-12-13T05:47:29.184Z,10.50
2022-12-13T05:49:56.110Z,11.07
2022-12-13T05:52:30.443Z,8.48
2022-12-13T05:55:01.045Z,7.20
2022-12-13T05:57:28.537Z,5.70
2022-12-13T05:59:55.787Z,5.65
2022-12-13T06:02:22.976Z,5.22
2022-12-13T06:04:50.035Z,5.18
2022-12-13T06:07:17.007Z,4.18
2022-12-13T06:09:44.103Z,3.10
2022-12-13T06:12:30.738Z,3.83
2022-12-13T06:15:01.340Z,3.03
2022-12-13T06:17:32.787Z,2.72
2022-12-13T06:20:00.117Z,2.95
2022-12-13T06:22:30.340Z,2.95
2022-12-13T06:24:57.422Z,2.38
2022-12-13T06:27:24.373Z,2.67
2022-12-13T06:29:51.303Z,2.72
2022-12-13T06:32:20.446Z,2.50
2022-12-13T06:34:47.395Z,3.30
2022-12-13T06:37:19.062Z,2.83
2022-12-13T06:39:46.072Z,2.63
2022-12-13T06:42:22.261Z,2.47
2022-12-13T06:44:55.952Z,3.72
2022-12-13T06:50:05.452Z,2.85
2022-12-13T06:52:33.127Z,3.15
2022-12-13T06:55:00.175Z,2.88
2022-12-13T06:57:27.201Z,3.20
2022-12-13T06:59:54.103Z,3.05
2022-12-13T07:02:25.154Z,3.47
2022-12-13T07:04:53.465Z,3.60
2022-12-13T07:07:20.411Z,4.38
2022-12-13T07:09:47.406Z,4.90
2022-12-13T07:12:14.285Z,5.72
2022-12-13T07:14:41.540Z,4.80
2022-12-13T07:17:08.510Z,4.65
2022-12-13T07:19:36.073Z,4.82
2022-12-13T07:22:06.152Z,5.10
2022-12-13T07:24:34.632Z,3.92
2022-12-13T07:27:02.241Z,3.85
2022-12-13T07:29:31.090Z,5.03
2022-12-13T07:32:01.575Z,3.10
2022-12-13T07:34:30.033Z,4.28
2022-12-13T07:36:56.932Z,4.72
2022-12-13T07:39:26.365Z,5.20
2022-12-13T07:41:55.429Z,5.63
2022-12-13T07:44:22.564Z,6.82
2022-12-13T07:46:49.541Z,5.93
2022-12-13T07:49:16.704Z,7.03
2022-12-13T07:51:43.588Z,7.30
2022-12-13T07:54:10.612Z,8.05
2022-12-13T07:56:37.510Z,6.72
2022-12-13T07:59:04.474Z,6.07
2022-12-13T08:01:34.919Z,5.97
2022-12-13T08:04:02.865Z,4.90
2022-12-13T08:06:30.915Z,4.32
2022-12-13T08:08:58.175Z,4.40
2022-12-13T08:11:25.191Z,4.82
2022-12-13T08:13:53.867Z,4.55
2022-12-13T08:16:25.963Z,5.18
2022-12-13T08:19:02.078Z,3.90
2022-12-13T08:21:55.699Z,2.80
2022-12-13T08:24:24.952Z,3.65
2022-12-13T08:26:54.690Z,4.57
2022-12-13T08:29:23.526Z,3.42
2022-12-13T08:32:07.044Z,4.25
2022-12-13T08:34:34.057Z,3.22
2022-12-13T08:37:03.162Z,3.00
2022-12-13T08:39:34.640Z,3.97
2022-12-13T08:42:21.032Z,3.58
2022-12-13T08:44:52.422Z,3.25
2022-12-13T08:47:23.015Z,2.88
2022-12-13T08:50:01.912Z,3.67
2022-12-13T08:52:39.206Z,3.83
2022-12-13T08:55:12.530Z,3.60
2022-12-13T08:57:39.907Z,3.38
2022-12-13T09:00:07.702Z,2.95
2022-12-13T09:02:37.863Z,4.28
2022-12-13T09:05:06.024Z,2.78
2022-12-13T09:07:33.029Z,2.50
2022-12-13T09:10:00.035Z,3.45
2022-12-13T09:12:47.047Z,4.57
2022-12-13T09:15:22.532Z,3.70
2022-12-13T09:17:52.208Z,3.40
2022-12-13T09:20:29.195Z,3.55
2022-12-13T09:23:01.950Z,3.50
2022-12-13T09:25:36.712Z,3.15
2022-12-13T09:28:08.415Z,3.15
2022-12-13T09:30:36.976Z,3.45
2022-12-13T09:33:28.662Z,3.20
2022-12-13T09:35:54.096Z,2.85
2022-12-13T09:38:21.054Z,3.55
2022-12-13T09:40:48.406Z,2.80
2022-12-13T09:43:31.298Z,3.53
2022-12-13T09:46:01.806Z,3.70
2022-12-13T09:48:34.538Z,4.28
2022-12-13T09:51:18.330Z,3.88
2022-12-13T09:53:50.934Z,3.25
2022-12-13T09:56:19.252Z,3.85
2022-12-13T09:58:49.491Z,5.28
2022-12-13T10:01:22.542Z,4.40
2022-12-13T10:03:53.378Z,3.83
2022-12-13T10:06:22.796Z,3.53
2022-12-13T10:08:50.951Z,3.83
2022-12-13T10:11:31.902Z,3.88
2022-12-13T10:14:05.862Z,3.90
2022-12-13T10:16:37.056Z,4.60
2022-12-13T10:19:29.505Z,4.65
2022-12-13T10:22:02.104Z,3.78
2022-12-13T10:24:36.876Z,4.57
2022-12-13T10:27:15.398Z,4.57
2022-12-13T10:30:17.564Z,4.20
2022-12-13T10:32:56.962Z,3.67
2022-12-13T10:35:28.027Z,4.65
2022-12-13T10:37:56.031Z,4.20
2022-12-13T10:40:33.740Z,4.32
2022-12-13T10:43:07.737Z,4.13
2022-12-13T10:48:04.306Z,4.32
2022-12-13T10:50:31.619Z,3.95
2022-12-13T10:53:00.266Z,3.67
2022-12-13T10:55:33.926Z,3.83
2022-12-13T11:00:38.755Z,4.50
2022-12-13T11:03:05.970Z,4.43
2022-12-13T11:05:34.511Z,3.50
2022-12-13T11:08:27.048Z,3.78
2022-12-13T11:11:04.056Z,4.30
2022-12-13T11:13:38.690Z,4.47
2022-12-13T11:16:22.261Z,5.30
2022-12-13T11:18:54.141Z,4.70
2022-12-13T11:21:32.597Z,4.35
2022-12-13T11:24:02.244Z,4.05
2022-12-13T11:26:29.843Z,4.07
2022-12-13T11:29:19.307Z,4.97
2022-12-13T11:32:00.852Z,3.65
2022-12-13T11:34:53.687Z,4.25
2022-12-13T11:37:28.905Z,6.78
2022-12-13T11:40:15.752Z,4.65
2022-12-13T11:42:50.230Z,4.65
2022-12-13T11:45:23.502Z,4.22
2022-12-13T11:48:04.960Z,4.60
2022-12-13T11:50:41.134Z,4.93
2022-12-13T11:53:30.716Z,4.43
2022-12-13T11:56:20.388Z,4.80
2022-12-13T11:59:26.074Z,4.45
2022-12-13T12:02:16.891Z,4.63
2022-12-13T12:04:49.091Z,4.32
2022-12-13T12:07:32.513Z,4.40
2022-12-13T12:10:15.387Z,4.45
2022-12-13T12:12:44.513Z,4.80
2022-12-13T12:15:26.371Z,4.25
2022-12-13T12:17:57.769Z,5.20
2022-12-13T12:21:00.554Z,4.60
2022-12-13T12:23:55.875Z,4.57
2022-12-13T12:26:30.897Z,5.10
2022-12-13T12:29:36.008Z,4.43
2022-12-13T12:32:16.587Z,4.32
2022-12-13T12:35:05.079Z,4.88
2022-12-13T12:37:44.966Z,5.00
2022-12-13T12:40:17.971Z,5.03
2022-12-13T12:43:15.264Z,4.97
2022-12-13T12:45:56.337Z,5.10
2022-12-13T12:49:01.882Z,5.00
2022-12-13T12:51:29.503Z,5.70
2022-12-13T12:54:03.588Z,4.88
2022-12-13T12:56:43.035Z,5.25
2022-12-13T12:59:21.686Z,5.22
2022-12-13T13:02:10.076Z,5.38
2022-12-13T13:04:42.461Z,5.25
2022-12-13T13:07:39.670Z,5.03
2022-12-13T13:10:16.381Z,5.80
2022-12-13T13:12:53.585Z,6.57
2022-12-13T13:15:38.972Z,6.07
2022-12-13T13:18:28.128Z,6.72
2022-12-13T13:21:23.331Z,6.07
2022-12-13T13:24:06.963Z,6.63
2022-12-13T13:26:36.736Z,7.22
2022-12-13T13:29:29.046Z,7.95
2022-12-13T13:32:01.128Z,8.57
2022-12-13T13:34:31.040Z,8.32
2022-12-13T13:36:58.871Z,6.78
2022-12-13T13:39:28.846Z,7.22
2022-12-13T13:42:02.380Z,6.20
2022-12-13T13:45:00.488Z,7.15
2022-12-13T13:47:27.386Z,6.55
2022-12-13T13:50:12.267Z,5.80
2022-12-13T13:52:42.076Z,6.07
2022-12-13T13:55:37.356Z,5.35
2022-12-13T13:58:41.841Z,5.88
2022-12-13T14:01:26.399Z,5.65
2022-12-13T14:04:38.065Z,5.93
2022-12-13T14:07:26.976Z,5.28
2022-12-13T14:09:57.084Z,6.03
2022-12-13T14:12:23.923Z,6.47
2022-12-13T14:15:21.339Z,6.85
2022-12-13T14:17:54.351Z,5.82
2022-12-13T14:20:43.158Z,6.10
2022-12-13T14:23:26.000Z,6.28
2022-12-13T14:26:14.711Z,6.10
2022-12-13T14:28:56.389Z,6.18
2022-12-13T14:31:43.041Z,6.03
2022-12-13T14:34:27.258Z,7.35
2022-12-13T14:36:58.258Z,5.82
2022-12-13T14:39:26.222Z,6.78
2022-12-13T14:41:58.521Z,6.03
2022-12-13T14:44:30.353Z,6.32
2022-12-13T14:47:05.643Z,5.45
2022-12-13T14:49:38.459Z,5.78
2022-12-13T14:52:26.568Z,6.33
2022-12-13T14:54:59.695Z,6.22
2022-12-13T14:57:31.031Z,6.45
2022-12-13T14:59:59.224Z,6.15
2022-12-13T15:02:32.888Z,6.13
2022-12-13T15:07:30.619Z,5.65
2022-12-13T15:10:02.246Z,5.63
2022-12-13T15:12:30.113Z,6.75
2022-12-13T15:15:02.061Z,6.10
2022-12-13T15:17:34.058Z,5.95
2022-12-13T15:20:20.481Z,6.38
2022-12-13T15:22:47.935Z,6.07
2022-12-13T15:25:15.637Z,5.47
2022-12-13T15:27:48.396Z,6.30
2022-12-13T15:30:15.741Z,5.78
2022-12-13T15:33:04.706Z,6.70
2022-12-13T15:35:31.844Z,7.40
2022-12-13T15:38:00.854Z,7.50
2022-12-13T15:40:27.830Z,7.20
2022-12-13T15:42:54.777Z,6.43
2022-12-13T15:45:24.619Z,6.40
2022-12-13T15:47:54.928Z,5.95
2022-12-13T15:50:38.494Z,8.20
2022-12-13T15:53:26.625Z,5.85
2022-12-13T15:55:53.960Z,7.15
2022-12-13T15:58:30.464Z,7.07
2022-12-13T16:00:58.506Z,6.57
2022-12-13T16:03:26.017Z,5.90
2022-12-13T16:05:55.049Z,6.28
2022-12-13T16:08:32.427Z,6.07
2022-12-13T16:10:59.469Z,6.30
2022-12-13T16:13:31.817Z,7.22
2022-12-13T16:16:09.293Z,8.15
2022-12-13T16:18:55.115Z,7.43
2022-12-13T16:21:22.081Z,6.28
2022-12-13T16:23:49.261Z,7.70
2022-12-13T16:26:23.668Z,5.70
2022-12-13T16:28:50.731Z,6.40
2022-12-13T16:31:18.997Z,7.00
2022-12-13T16:33:46.066Z,6.15
2022-12-13T16:36:13.086Z,6.00
2022-12-13T16:38:40.107Z,6.15
2022-12-13T16:41:08.377Z,6.57
2022-12-13T16:43:39.017Z,7.30
2022-12-13T16:47:16.775Z,7.18
2022-12-13T16:48:53.769Z,6.95
2022-12-13T16:51:21.109Z,7.30
2022-12-13T16:53:48.114Z,8.65
2022-12-13T16:56:16.666Z,7.53
2022-12-13T16:58:49.726Z,7.90
2022-12-13T17:01:19.841Z,10.43
2022-12-13T17:03:46.898Z,12.55
2022-12-13T17:06:13.847Z,11.38
2022-12-13T17:08:41.356Z,13.90
2022-12-13T17:11:14.581Z,13.15
2022-12-13T17:13:47.085Z,12.48
2022-12-13T17:16:14.298Z,13.07
2022-12-13T17:18:41.369Z,12.27
2022-12-13T17:21:09.272Z,11.32
2022-12-13T17:23:36.285Z,11.65
2022-12-13T17:26:10.482Z,11.88
2022-12-13T17:28:37.719Z,11.15
2022-12-13T17:31:09.221Z,10.90
2022-12-13T17:33:36.575Z,10.73
2022-12-13T17:36:04.493Z,11.35
2022-12-13T17:38:31.510Z,13.00
2022-12-13T17:40:58.504Z,12.50
2022-12-13T17:43:34.380Z,20.77
2022-12-13T17:46:03.461Z,18.65
2022-12-13T17:48:37.271Z,18.38
2022-12-13T17:51:07.637Z,16.95
2022-12-13T17:53:34.559Z,13.88
2022-12-13T17:56:03.929Z,13.23
2022-12-13T17:58:32.375Z,11.45
2022-12-13T18:00:59.907Z,11.98
2022-12-13T18:03:27.176Z,11.55
2022-12-13T18:05:59.350Z,9.40
2022-12-13T18:08:26.866Z,11.23
2022-12-13T18:11:23.852Z,11.25
2022-12-13T18:13:45.231Z,9.93
2022-12-13T18:16:13.975Z,11.10
2022-12-13T18:18:41.043Z,12.52
2022-12-13T18:21:18.151Z,9.20
2022-12-13T18:23:45.447Z,10.07
2022-12-13T18:26:22.480Z,8.60
2022-12-13T18:28:49.406Z,8.90
2022-12-13T18:31:18.836Z,9.63
2022-12-13T18:33:47.892Z,9.40
2022-12-13T18:36:16.474Z,9.10
2022-12-13T18:38:43.438Z,10.15
2022-12-13T18:41:14.070Z,8.95
2022-12-13T18:43:44.231Z,8.85
2022-12-13T18:46:11.805Z,9.77
2022-12-13T18:48:38.827Z,7.50
2022-12-13T18:51:07.816Z,9.82
2022-12-13T18:53:34.984Z,10.15
2022-12-13T18:56:02.919Z,10.40
2022-12-13T18:58:29.844Z,11.27
2022-12-13T19:00:57.538Z,12.77
2022-12-13T19:03:25.733Z,12.70
2022-12-13T19:05:53.222Z,12.32
2022-12-13T19:08:20.111Z,10.40
2022-12-13T19:10:48.067Z,11.73
2022-12-13T19:13:14.994Z,11.40
2022-12-13T19:15:42.049Z,12.00
2022-12-13T19:18:09.146Z,12.55
2022-12-13T19:20:36.210Z,12.82
2022-12-13T19:23:03.130Z,13.02
2022-12-13T19:25:30.803Z,13.38
2022-12-13T19:27:57.733Z,12.15
2022-12-13T19:30:24.708Z,13.05
2022-12-13T19:32:51.880Z,13.90
2022-12-13T19:35:19.804Z,14.98
2022-12-13T19:37:46.749Z,14.55
2022-12-13T19:40:13.737Z,13.80
2022-12-13T19:42:40.627Z,11.05
2022-12-13T19:45:09.352Z,11.55
2022-12-13T19:47:36.300Z,11.35
2022-12-13T19:50:03.444Z,12.32
2022-12-13T19:52:30.345Z,14.85
2022-12-13T19:54:57.544Z,15.27
2022-12-13T19:57:24.419Z,14.63
2022-12-13T19:59:51.403Z,17.13
2022-12-13T20:02:18.375Z,17.25
2022-12-13T20:04:45.400Z,13.70
2022-12-13T20:07:12.419Z,14.13
2022-12-13T20:09:40.063Z,13.38
2022-12-13T20:12:07.033Z,12.38
2022-12-13T20:14:34.100Z,13.48
2022-12-13T20:17:01.120Z,14.82
2022-12-13T20:19:28.115Z,14.27
2022-12-13T20:21:57.032Z,16.45
2022-12-13T20:24:24.285Z,15.18
2022-12-13T20:26:51.208Z,14.93
2022-12-13T20:29:18.762Z,15.50
2022-12-13T20:31:48.670Z,16.25
2022-12-13T20:34:16.268Z,18.17
2022-12-13T20:36:43.256Z,16.58
2022-12-13T20:39:11.601Z,17.00
2022-12-13T20:41:38.512Z,18.85
2022-12-13T20:44:07.046Z,17.58
2022-12-13T20:46:36.705Z,21.05
2022-12-13T20:49:04.609Z,18.23
2022-12-13T20:51:32.306Z,19.88
2022-12-13T20:53:59.343Z,19.58
2022-12-13T20:56:28.138Z,15.68
2022-12-13T20:58:55.240Z,17.75
2022-12-13T21:01:32.601Z,19.45
2022-12-13T21:04:00.606Z,18.98
2022-12-13T21:06:28.319Z,17.77
2022-12-13T21:08:56.756Z,19.45
2022-12-13T21:11:25.824Z,19.42
2022-12-13T21:14:25.647Z,20.77
2022-12-13T21:16:54.300Z,18.90
2022-12-13T21:19:30.961Z,17.83
2022-12-13T21:22:01.556Z,20.02
2022-12-13T21:24:29.706Z,19.10
2022-12-13T21:26:56.738Z,20.77
2022-12-13T21:29:23.762Z,21.58
2022-12-13T21:31:50.834Z,20.45
2022-12-13T21:34:18.310Z,19.70
2022-12-13T21:36:46.779Z,19.75
2022-12-13T21:39:15.661Z,20.08
2022-12-13T21:41:42.785Z,20.05
2022-12-13T21:44:14.177Z,20.98
2022-12-13T21:47:10.812Z,19.15
2022-12-13T21:49:29.141Z,18.92
2022-12-13T21:51:56.089Z,19.13
2022-12-13T21:54:23.043Z,19.88
2022-12-13T21:57:08.318Z,21.50
2022-12-13T21:59:35.392Z,21.00
2022-12-13T22:02:13.668Z,22.27
2022-12-13T22:04:41.364Z,20.13
2022-12-13T22:07:08.644Z,24.98
2022-12-13T22:09:36.169Z,24.40
2022-12-13T22:12:07.000Z,33.33
2022-12-13T22:14:34.025Z,32.38
2022-12-13T22:17:01.639Z,31.45
2022-12-13T22:19:28.654Z,29.13
2022-12-13T22:21:55.606Z,30.70
2022-12-13T22:24:22.582Z,26.88
2022-12-13T22:26:49.450Z,26.70
2022-12-13T22:29:16.724Z,27.85
2022-12-13T22:31:43.791Z,25.40
2022-12-13T22:34:15.960Z,26.75
2022-12-13T22:36:42.898Z,29.33
2022-12-13T22:39:16.386Z,28.15
2022-12-13T22:41:43.523Z,25.80
2022-12-13T22:44:11.493Z,28.15
2022-12-13T22:46:38.491Z,25.98
2022-12-13T22:49:05.702Z,28.33
2022-12-13T22:51:32.646Z,26.15
2022-12-13T22:53:59.517Z,26.67
2022-12-13T22:56:26.650Z,24.85
2022-12-13T22:58:54.564Z,25.48
2022-12-13T23:01:23.445Z,24.10
2022-12-13T23:03:50.641Z,23.15
2022-12-13T23:06:22.087Z,24.33
2022-12-13T23:08:57.173Z,25.70
2022-12-13T23:11:42.575Z,27.17
2022-12-13T23:14:12.244Z,27.13
2022-12-13T23:16:39.231Z,28.10
2022-12-13T23:19:39.898Z,26.67
2022-12-13T23:21:55.256Z,27.63
2022-12-13T23:24:22.333Z,26.33
2022-12-13T23:26:49.422Z,29.63
2022-12-13T23:29:16.330Z,25.52
2022-12-13T23:31:49.102Z,28.67
2022-12-13T23:34:16.372Z,24.58
2022-12-13T23:36:43.280Z,26.40
2022-12-13T23:39:10.828Z,23.98
2022-12-13T23:41:37.792Z,26.92
2022-12-13T23:44:05.088Z,21.88
2022-12-13T23:46:33.746Z,26.92
2022-12-13T23:49:01.298Z,22.83
2022-12-13T23:51:28.555Z,23.00
2022-12-13T23:53:55.518Z,23.02
2022-12-13T23:56:22.649Z,29.85
2022-12-13T23:58:49.798Z,28.05
